This is the latest recevied weather packets stored in our database for station/object N3OZD-10. If no packets are shown the sender has not sent any weather packets the latest 10 day(s).
| Time | Temp. | Humidity | Pressure | Rain* | Wind** | Luminosity | Snow |
|---|---|---|---|---|---|---|---|
| 1778005044 | 27.22° C | 25% | 1009.9 hPa | 0 mm | - | - | - |
| 1778004744 | 26.67° C | 24% | 1009.9 hPa | 0 mm | - | - | - |
| 1778004444 | 26.67° C | 22% | 1010.1 hPa | 0 mm | - | - | - |
| 1778004144 | 26.67° C | 24% | 1010.2 hPa | 0 mm | - | - | - |
| 1778003845 | 26.67° C | 26% | 1010.2 hPa | 0 mm | - | - | - |
| 1778003544 | 26.67° C | 24% | 1010.2 hPa | 0 mm | - | - | - |
| 1778003244 | 26.67° C | 23% | 1010.3 hPa | 0 mm | - | - | - |
| 1778002944 | 26.67° C | 28% | 1010.3 hPa | 0.25 mm | - | - | - |
| 1778002644 | 26.67° C | 25% | 1010.4 hPa | 0.25 mm | - | - | - |
| 1778002345 | 26.67° C | 30% | 1010.3 hPa | 0.25 mm | - | - | - |
| 1778002044 | 26.67° C | 27% | 1010.5 hPa | 0.25 mm | - | - | - |
| 1778001744 | 26.11° C | 24% | 1010.5 hPa | 0.25 mm | - | - | - |
| 1778001451 | 26.67° C | 31% | 1010.4 hPa | 0.25 mm | - | - | - |
| 1778001144 | 26.67° C | 33% | 1010.5 hPa | 0.25 mm | - | - | - |
| 1778000844 | 26.67° C | 30% | 1010.7 hPa | 0.25 mm | - | - | - |
| 1778000544 | 26.11° C | 33% | 1010.7 hPa | 0.25 mm | - | - | - |
| 1778000244 | 26.11° C | 32% | 1010.8 hPa | 0.25 mm | - | - | - |
| 1777999944 | 26.11° C | 37% | 1010.7 hPa | 0.25 mm | - | - | - |
| 1777999344 | 25.56° C | 33% | 1010.9 hPa | 0 mm | - | - | - |
| 1777999044 | 25° C | 39% | 1010.9 hPa | 0 mm | - | - | - |
| 1777998744 | 25.56° C | 39% | 1011.1 hPa | 0 mm | - | - | - |
| 1777998444 | 25.56° C | 41% | 1011.1 hPa | 0 mm | - | - | - |
| 1777998144 | 25° C | 43% | 1011.2 hPa | 0 mm | - | - | - |
| 1777997844 | 25° C | 42% | 1011.2 hPa | 0 mm | - | - | - |
| 1777997544 | 25° C | 47% | 1011.2 hPa | 0 mm | - | - | - |
* Rain latest hour (hover to see other rain measurements)
** Current wind speed in m/s (hover to see current wind gust speed)